createdAt,value
2018-12-03T00:02:08.049Z,12.70
2018-12-03T00:04:41.736Z,12.70
2018-12-03T00:07:16.292Z,12.40
2018-12-03T00:09:49.917Z,12.40
2018-12-03T00:12:24.531Z,12.30
2018-12-03T00:14:58.340Z,12.30
2018-12-03T00:17:31.912Z,12.30
2018-12-03T00:20:05.641Z,12.30
2018-12-03T00:22:39.366Z,12.30
2018-12-03T00:25:13.750Z,12.30
2018-12-03T00:27:47.459Z,12.30
2018-12-03T00:30:21.781Z,12.20
2018-12-03T00:32:55.426Z,12.20
2018-12-03T00:35:28.956Z,12.20
2018-12-03T00:38:02.674Z,12.20
2018-12-03T00:40:36.207Z,12.20
2018-12-03T00:43:09.895Z,12.30
2018-12-03T00:45:44.308Z,12.30
2018-12-03T00:48:18.004Z,12.30
2018-12-03T00:50:51.821Z,12.30
2018-12-03T00:53:26.245Z,12.20
2018-12-03T00:56:00.765Z,12.10
2018-12-03T00:58:35.150Z,12.10
2018-12-03T01:01:09.668Z,12.10
2018-12-03T01:03:44.355Z,12.10
2018-12-03T01:06:18.031Z,12.10
2018-12-03T01:08:51.712Z,12.10
2018-12-03T01:11:26.222Z,12.10
2018-12-03T01:13:59.886Z,12.10
2018-12-03T01:16:33.619Z,12.10
2018-12-03T01:19:07.267Z,12.20
2018-12-03T01:21:40.824Z,12.20
2018-12-03T01:24:14.601Z,12.20
2018-12-03T01:26:48.400Z,12.20
2018-12-03T01:29:21.963Z,12.20
2018-12-03T01:31:55.558Z,12.20
2018-12-03T01:34:29.978Z,12.30
2018-12-03T01:37:03.537Z,12.20
2018-12-03T01:39:37.317Z,12.30
2018-12-03T01:42:11.025Z,12.30
2018-12-03T01:44:44.747Z,12.30
2018-12-03T01:47:18.296Z,12.20
2018-12-03T01:49:52.059Z,12.30
2018-12-03T01:52:26.440Z,12.30
2018-12-03T01:55:00.121Z,12.30
2018-12-03T01:57:33.643Z,12.30
2018-12-03T02:00:07.360Z,12.30
2018-12-03T02:02:41.021Z,12.30
2018-12-03T02:05:15.347Z,12.30
2018-12-03T02:07:48.850Z,12.30
2018-12-03T02:10:22.491Z,12.30
2018-12-03T02:12:56.241Z,12.30
2018-12-03T02:15:29.890Z,12.30
2018-12-03T02:18:03.491Z,12.30
2018-12-03T02:20:37.078Z,12.30
2018-12-03T02:23:10.892Z,12.30
2018-12-03T02:25:44.508Z,12.30
2018-12-03T02:28:18.196Z,12.30
2018-12-03T02:30:51.767Z,12.30
2018-12-03T02:33:25.294Z,12.30
2018-12-03T02:35:58.971Z,12.30
2018-12-03T02:38:32.660Z,12.30
2018-12-03T02:41:07.016Z,12.20
2018-12-03T02:43:40.668Z,12.20
2018-12-03T02:46:15.012Z,12.20
2018-12-03T02:48:48.657Z,12.20
2018-12-03T02:51:23.026Z,12.20
2018-12-03T02:53:56.715Z,12.20
2018-12-03T02:56:30.464Z,12.30
2018-12-03T02:59:04.858Z,12.30
2018-12-03T03:01:38.615Z,12.30
2018-12-03T03:04:12.405Z,12.30
2018-12-03T03:06:46.908Z,12.40
2018-12-03T03:09:20.739Z,12.30
2018-12-03T03:11:54.504Z,12.40
2018-12-03T03:14:29.167Z,12.40
2018-12-03T03:17:03.672Z,12.40
2018-12-03T03:19:37.266Z,12.30
2018-12-03T03:22:10.905Z,12.40
2018-12-03T03:24:44.697Z,12.30
2018-12-03T03:27:19.284Z,12.40
2018-12-03T03:29:52.823Z,12.40
2018-12-03T03:32:26.500Z,12.40
2018-12-03T03:35:00.102Z,12.50
2018-12-03T03:37:33.696Z,12.50
2018-12-03T03:40:07.260Z,12.50
2018-12-03T03:42:41.634Z,12.50
2018-12-03T03:45:15.205Z,12.50
2018-12-03T03:47:48.773Z,12.60
2018-12-03T03:50:22.451Z,12.60
2018-12-03T03:52:56.114Z,12.60
2018-12-03T03:55:29.851Z,12.60
2018-12-03T03:58:03.519Z,12.50
2018-12-03T04:00:37.268Z,12.60
2018-12-03T04:03:10.881Z,12.60
2018-12-03T04:05:44.435Z,12.60
2018-12-03T04:08:18.257Z,12.50
2018-12-03T04:10:52.767Z,12.50
2018-12-03T04:13:26.538Z,12.40
2018-12-03T04:16:00.372Z,12.40
2018-12-03T04:18:33.981Z,12.40
2018-12-03T04:21:07.592Z,12.40
2018-12-03T04:23:41.880Z,12.30
2018-12-03T04:26:15.517Z,12.30
2018-12-03T04:28:49.322Z,12.30
2018-12-03T04:31:22.954Z,12.30
2018-12-03T04:33:56.677Z,12.30
2018-12-03T04:36:31.051Z,12.30
2018-12-03T04:39:05.365Z,12.30
2018-12-03T04:41:39.050Z,12.30
2018-12-03T04:44:12.670Z,12.30
2018-12-03T04:46:47.169Z,12.30
2018-12-03T04:49:20.699Z,12.30
2018-12-03T04:51:54.367Z,12.30
2018-12-03T04:54:27.983Z,12.30
2018-12-03T04:57:01.566Z,12.30
2018-12-03T04:59:35.160Z,12.30
2018-12-03T05:02:08.792Z,12.30
2018-12-03T05:04:42.398Z,12.20
2018-12-03T05:07:16.102Z,12.20
2018-12-03T05:09:49.808Z,12.20
2018-12-03T05:12:23.414Z,12.20
2018-12-03T05:14:56.968Z,12.20
2018-12-03T05:17:30.474Z,12.30
2018-12-03T05:20:04.048Z,12.30
2018-12-03T05:22:37.764Z,12.30
2018-12-03T05:25:11.514Z,12.30
2018-12-03T05:27:45.135Z,12.30
2018-12-03T05:30:18.668Z,12.30
2018-12-03T05:32:52.437Z,12.30
2018-12-03T05:35:26.729Z,12.40
2018-12-03T05:38:01.053Z,12.40
2018-12-03T05:40:35.368Z,12.40
2018-12-03T05:43:08.942Z,12.40
2018-12-03T05:45:42.471Z,12.40
2018-12-03T05:48:16.127Z,12.40
2018-12-03T05:50:49.878Z,12.30
2018-12-03T05:53:23.594Z,12.40
2018-12-03T05:55:58.038Z,12.40
2018-12-03T05:58:31.639Z,12.40
2018-12-03T06:01:05.399Z,12.50
2018-12-03T06:03:39.125Z,12.50
2018-12-03T06:06:12.722Z,12.50
2018-12-03T06:08:46.481Z,12.50
2018-12-03T06:11:20.024Z,12.50
2018-12-03T06:13:53.819Z,12.50
2018-12-03T06:16:27.410Z,12.60
2018-12-03T06:19:01.229Z,12.50
2018-12-03T06:21:35.744Z,12.50
2018-12-03T06:24:09.382Z,12.50
2018-12-03T06:26:43.188Z,12.50
2018-12-03T06:29:16.734Z,12.50
2018-12-03T06:31:50.301Z,12.60
2018-12-03T06:34:23.898Z,12.60
2018-12-03T06:36:57.651Z,12.60
2018-12-03T06:39:31.191Z,12.60
2018-12-03T06:42:04.861Z,12.70
2018-12-03T06:44:38.469Z,12.60
2018-12-03T06:47:12.300Z,12.60
2018-12-03T06:49:45.919Z,12.70
2018-12-03T06:52:19.774Z,12.60
2018-12-03T06:54:53.353Z,12.60
2018-12-03T06:57:27.891Z,12.60
2018-12-03T07:00:02.262Z,12.60
2018-12-03T07:02:35.977Z,12.60
2018-12-03T07:05:09.607Z,12.60
2018-12-03T07:07:43.178Z,12.60
2018-12-03T07:10:17.034Z,12.60
2018-12-03T07:12:50.828Z,12.60
2018-12-03T07:15:25.446Z,12.60
2018-12-03T07:17:59.090Z,12.60
2018-12-03T07:20:32.790Z,12.60
2018-12-03T07:23:06.350Z,12.60
2018-12-03T07:25:40.007Z,12.60
2018-12-03T07:28:13.588Z,12.70
2018-12-03T07:30:47.195Z,12.70
2018-12-03T07:33:20.904Z,12.80
2018-12-03T07:35:54.503Z,12.80
2018-12-03T07:38:28.267Z,12.80
2018-12-03T07:41:01.801Z,12.90
2018-12-03T07:43:35.615Z,12.90
2018-12-03T07:46:09.246Z,12.90
2018-12-03T07:48:42.823Z,12.90
2018-12-03T07:51:16.496Z,12.90
2018-12-03T07:53:50.333Z,12.90
2018-12-03T07:56:23.968Z,12.90
2018-12-03T07:58:58.412Z,13.00
2018-12-03T08:01:32.080Z,13.00
2018-12-03T08:04:05.828Z,13.10
2018-12-03T08:06:40.227Z,13.30
2018-12-03T08:09:14.052Z,13.30
2018-12-03T08:11:47.833Z,13.30
2018-12-03T08:14:21.661Z,13.30
2018-12-03T08:16:55.386Z,13.40
2018-12-03T08:19:29.230Z,13.40
2018-12-03T08:22:02.833Z,13.50
2018-12-03T08:24:41.379Z,13.50
2018-12-03T08:27:15.276Z,13.50
2018-12-03T08:29:48.902Z,13.50
2018-12-03T08:32:22.839Z,13.50
2018-12-03T08:34:57.384Z,13.50
2018-12-03T08:37:31.808Z,13.50
2018-12-03T08:40:06.194Z,13.60
2018-12-03T08:42:39.847Z,13.60
2018-12-03T08:45:13.647Z,13.70
2018-12-03T08:47:47.432Z,13.60
2018-12-03T08:50:21.873Z,13.70
2018-12-03T08:52:56.336Z,13.70
2018-12-03T08:55:30.130Z,13.60
2018-12-03T08:58:03.881Z,13.70
2018-12-03T09:00:37.594Z,13.80
2018-12-03T09:03:11.450Z,13.90
2018-12-03T09:05:45.257Z,14.00
2018-12-03T09:08:19.014Z,14.30
2018-12-03T09:10:52.620Z,14.70
2018-12-03T09:13:26.363Z,14.60
2018-12-03T09:16:00.298Z,14.60
2018-12-03T09:18:34.723Z,14.50
2018-12-03T09:21:09.235Z,14.50
2018-12-03T09:23:42.995Z,14.40
2018-12-03T09:26:16.821Z,14.30
2018-12-03T09:28:50.504Z,14.30
2018-12-03T09:31:24.903Z,14.20
2018-12-03T09:33:58.566Z,14.10
2018-12-03T09:36:32.125Z,14.10
2018-12-03T09:39:05.905Z,14.00
2018-12-03T09:41:39.635Z,14.00
2018-12-03T09:44:14.240Z,13.90
2018-12-03T09:46:48.085Z,13.90
2018-12-03T09:49:21.691Z,13.90
2018-12-03T09:51:55.503Z,13.80
2018-12-03T09:54:29.833Z,13.80
2018-12-03T09:57:04.121Z,13.70
2018-12-03T09:59:37.702Z,13.70
2018-12-03T10:02:12.162Z,13.70
2018-12-03T10:04:45.981Z,13.70
2018-12-03T10:07:19.725Z,13.80
2018-12-03T10:09:53.427Z,13.90
2018-12-03T10:12:27.157Z,14.00
2018-12-03T10:15:00.944Z,14.00
2018-12-03T10:17:34.526Z,14.20
2018-12-03T10:20:08.769Z,14.40
2018-12-03T10:22:42.363Z,15.10
2018-12-03T10:25:16.769Z,16.90
2018-12-03T10:27:50.507Z,16.80
2018-12-03T10:30:24.086Z,17.70
2018-12-03T10:32:57.793Z,17.30
2018-12-03T10:35:31.430Z,17.30
2018-12-03T10:38:05.221Z,18.00
2018-12-03T10:40:39.663Z,17.20
2018-12-03T10:43:13.293Z,17.20
2018-12-03T10:45:47.647Z,15.80
2018-12-03T10:48:21.392Z,15.80
2018-12-03T10:50:54.956Z,15.60
2018-12-03T10:53:28.533Z,15.40
2018-12-03T10:56:02.106Z,15.20
2018-12-03T10:58:35.705Z,15.20
2018-12-03T11:01:14.975Z,15.30
2018-12-03T11:03:54.745Z,15.20
2018-12-03T11:06:28.729Z,15.30
2018-12-03T11:12:08.153Z,15.40
2018-12-03T11:14:41.787Z,15.40
2018-12-03T11:17:16.413Z,15.40
2018-12-03T11:19:50.093Z,15.30
2018-12-03T11:22:24.450Z,15.40
2018-12-03T11:24:58.112Z,15.40
2018-12-03T11:27:31.895Z,15.40
2018-12-03T11:30:05.692Z,15.30
2018-12-03T11:32:39.392Z,15.30
2018-12-03T11:35:12.943Z,15.30
2018-12-03T11:37:46.632Z,15.20
2018-12-03T11:40:20.855Z,15.20
2018-12-03T11:42:55.361Z,15.20
2018-12-03T11:45:28.984Z,15.20
2018-12-03T11:48:02.600Z,15.20
2018-12-03T11:50:36.200Z,15.30
2018-12-03T11:53:10.535Z,15.20
2018-12-03T11:55:45.749Z,15.30
2018-12-03T11:58:19.357Z,15.30
2018-12-03T12:00:53.896Z,15.30
2018-12-03T12:03:27.725Z,15.30
2018-12-03T12:06:02.021Z,15.30
2018-12-03T12:08:35.742Z,15.30
2018-12-03T12:11:09.437Z,15.30
2018-12-03T12:13:43.060Z,15.20
2018-12-03T12:16:16.919Z,15.20
2018-12-03T12:18:50.585Z,15.10
2018-12-03T12:21:24.191Z,15.10
2018-12-03T12:23:57.731Z,15.10
2018-12-03T12:26:31.442Z,15.20
2018-12-03T12:29:05.150Z,15.20
2018-12-03T12:31:38.990Z,15.20
2018-12-03T12:34:12.778Z,15.30
2018-12-03T12:36:46.339Z,15.30
2018-12-03T12:39:20.099Z,15.40
2018-12-03T12:41:53.878Z,15.40
2018-12-03T12:44:27.786Z,15.40
2018-12-03T12:47:01.464Z,15.50
2018-12-03T12:49:35.039Z,15.50
2018-12-03T12:52:08.881Z,15.50
2018-12-03T12:54:42.456Z,15.40
2018-12-03T12:57:16.182Z,15.30
2018-12-03T12:59:49.911Z,15.30
2018-12-03T13:02:23.593Z,15.20
2018-12-03T13:04:57.175Z,15.10
2018-12-03T13:07:31.074Z,15.00
2018-12-03T13:10:04.643Z,15.00
2018-12-03T13:12:38.279Z,14.90
2018-12-03T13:15:12.012Z,14.70
2018-12-03T13:17:45.709Z,14.60
2018-12-03T13:20:19.537Z,14.50
2018-12-03T13:22:53.087Z,14.40
2018-12-03T13:25:27.819Z,14.30
2018-12-03T13:28:01.631Z,14.10
2018-12-03T13:30:36.291Z,14.00
2018-12-03T13:33:10.039Z,14.00
2018-12-03T13:35:44.479Z,14.10
2018-12-03T13:38:18.206Z,14.00
2018-12-03T13:40:52.062Z,14.10
2018-12-03T13:43:25.748Z,14.20
2018-12-03T13:46:00.315Z,14.20
2018-12-03T13:48:34.035Z,14.10
2018-12-03T13:51:08.443Z,14.20
2018-12-03T13:53:42.201Z,14.20
2018-12-03T13:56:15.750Z,14.20
2018-12-03T13:58:49.330Z,14.10
2018-12-03T14:01:23.109Z,14.20
2018-12-03T14:03:57.664Z,14.20
2018-12-03T14:06:31.306Z,14.10
2018-12-03T14:09:04.939Z,14.20
2018-12-03T14:11:38.756Z,14.30
2018-12-03T14:14:13.388Z,14.50
2018-12-03T14:16:47.119Z,14.40
2018-12-03T14:19:21.561Z,14.50
2018-12-03T14:21:55.402Z,14.50
2018-12-03T14:24:29.193Z,14.60
2018-12-03T14:27:02.899Z,14.50
2018-12-03T14:29:37.310Z,14.40
2018-12-03T14:32:11.067Z,14.30
2018-12-03T14:34:44.923Z,14.30
2018-12-03T14:37:18.672Z,14.30
2018-12-03T14:39:53.281Z,14.30
2018-12-03T14:42:27.078Z,14.30
2018-12-03T14:45:00.749Z,14.30
2018-12-03T14:47:34.373Z,14.30
2018-12-03T14:50:08.182Z,14.30
2018-12-03T14:52:41.951Z,14.30
2018-12-03T14:55:15.610Z,14.30
2018-12-03T14:57:49.376Z,14.30
2018-12-03T15:00:23.067Z,14.20
2018-12-03T15:02:56.826Z,14.20
2018-12-03T15:05:30.463Z,14.20
2018-12-03T15:08:04.069Z,14.10
2018-12-03T15:10:37.684Z,14.10
2018-12-03T15:13:11.458Z,14.10
2018-12-03T15:15:45.055Z,14.10
2018-12-03T15:18:18.818Z,14.00
2018-12-03T15:20:52.617Z,14.00
2018-12-03T15:23:26.359Z,14.00
2018-12-03T15:25:59.969Z,13.90
2018-12-03T15:28:34.514Z,13.90
2018-12-03T15:31:08.927Z,13.90
2018-12-03T15:33:42.684Z,13.90
2018-12-03T15:36:16.491Z,13.90
2018-12-03T15:38:50.225Z,13.80
2018-12-03T15:41:23.725Z,13.90
2018-12-03T15:43:57.288Z,13.90
2018-12-03T15:46:30.995Z,13.90
2018-12-03T15:49:04.765Z,13.90
2018-12-03T15:51:38.452Z,14.00
2018-12-03T15:54:12.045Z,14.00
2018-12-03T15:56:45.686Z,13.90
2018-12-03T15:59:19.518Z,14.00
2018-12-03T16:01:53.070Z,14.00
2018-12-03T16:04:27.448Z,14.00
2018-12-03T16:07:01.170Z,14.00
2018-12-03T16:09:35.625Z,14.00
2018-12-03T16:12:10.027Z,14.00
2018-12-03T16:14:43.659Z,14.00
2018-12-03T16:17:20.177Z,14.00
2018-12-03T16:19:51.317Z,13.90
2018-12-03T16:22:25.133Z,13.80
2018-12-03T16:24:59.690Z,13.70
2018-12-03T16:27:33.852Z,13.70
2018-12-03T16:30:07.992Z,13.60
2018-12-03T16:32:42.472Z,13.50
2018-12-03T16:35:16.122Z,13.40
2018-12-03T16:37:50.476Z,13.40
2018-12-03T16:40:24.212Z,13.40
2018-12-03T16:42:59.021Z,13.40
2018-12-03T16:45:32.184Z,13.30
2018-12-03T16:48:06.764Z,13.30
2018-12-03T16:50:40.450Z,13.30
2018-12-03T16:53:14.231Z,13.40
2018-12-03T16:55:48.057Z,13.30
2018-12-03T16:58:21.859Z,13.20
2018-12-03T17:00:55.728Z,13.00
2018-12-03T17:03:30.299Z,13.00
2018-12-03T17:06:04.036Z,13.00
2018-12-03T17:08:38.467Z,13.00
2018-12-03T17:11:12.197Z,13.00
2018-12-03T17:13:46.014Z,13.00
2018-12-03T17:16:19.809Z,13.00
2018-12-03T17:18:53.397Z,13.00
2018-12-03T17:21:27.139Z,13.00
2018-12-03T17:24:00.962Z,13.00
2018-12-03T17:26:34.699Z,13.10
2018-12-03T17:29:08.345Z,13.10
2018-12-03T17:31:42.105Z,13.10
2018-12-03T17:34:16.458Z,13.10
2018-12-03T17:36:50.281Z,13.10
2018-12-03T17:39:24.069Z,13.10
2018-12-03T17:41:58.179Z,13.10
2018-12-03T17:44:31.807Z,13.10
2018-12-03T17:47:05.671Z,13.10
2018-12-03T17:49:40.143Z,13.10
2018-12-03T17:52:13.958Z,13.00
2018-12-03T17:54:47.658Z,13.00
2018-12-03T17:57:21.396Z,13.00
2018-12-03T17:59:55.171Z,13.00
2018-12-03T18:02:28.995Z,13.00
2018-12-03T18:05:02.746Z,13.00
2018-12-03T18:07:37.285Z,13.00
2018-12-03T18:10:11.022Z,13.00
2018-12-03T18:12:44.846Z,13.00
2018-12-03T18:15:18.641Z,13.10
2018-12-03T18:17:52.317Z,13.10
2018-12-03T18:20:26.114Z,13.10
2018-12-03T18:22:59.736Z,13.10
2018-12-03T18:25:34.238Z,13.10
2018-12-03T18:28:08.077Z,13.10
2018-12-03T18:30:41.882Z,13.00
2018-12-03T18:33:15.723Z,13.10
2018-12-03T18:35:49.475Z,13.00
2018-12-03T18:38:23.318Z,13.00
2018-12-03T18:40:57.008Z,13.00
2018-12-03T18:43:30.832Z,13.00
2018-12-03T18:46:04.562Z,12.90
2018-12-03T18:48:38.435Z,12.90
2018-12-03T18:51:12.244Z,12.90
2018-12-03T18:53:45.910Z,12.90
2018-12-03T18:56:20.532Z,12.90
2018-12-03T18:58:54.200Z,12.90
2018-12-03T19:01:28.674Z,12.90
2018-12-03T19:04:02.383Z,12.90
2018-12-03T19:06:36.060Z,12.90
2018-12-03T19:09:10.714Z,12.90
2018-12-03T19:11:44.397Z,12.90
2018-12-03T19:14:18.264Z,12.90
2018-12-03T19:16:52.088Z,12.90
2018-12-03T19:19:25.948Z,13.00
2018-12-03T19:21:59.729Z,12.90
2018-12-03T19:24:33.582Z,12.80
2018-12-03T19:27:07.272Z,12.80
2018-12-03T19:29:41.085Z,12.70
2018-12-03T19:32:14.949Z,12.70
2018-12-03T19:34:49.433Z,12.70
2018-12-03T19:37:23.189Z,12.70
2018-12-03T19:39:57.745Z,12.70
2018-12-03T19:42:31.469Z,12.70
2018-12-03T19:45:05.272Z,12.60
2018-12-03T19:47:38.984Z,12.60
2018-12-03T19:50:12.727Z,12.70
2018-12-03T19:52:46.424Z,12.60
2018-12-03T19:55:21.078Z,12.60
2018-12-03T19:57:55.000Z,12.60
2018-12-03T20:00:28.915Z,12.60
2018-12-03T20:03:02.718Z,12.60
2018-12-03T20:05:37.362Z,12.50
2018-12-03T20:08:11.240Z,12.50
2018-12-03T20:10:45.103Z,12.40
2018-12-03T20:13:20.211Z,12.40
2018-12-03T20:15:52.629Z,12.30
2018-12-03T20:18:26.331Z,12.30
2018-12-03T20:21:00.175Z,12.30
2018-12-03T20:23:34.217Z,12.20
2018-12-03T20:26:08.113Z,12.30
2018-12-03T20:28:41.773Z,12.30
2018-12-03T20:31:15.626Z,12.30
2018-12-03T20:33:49.555Z,12.30
2018-12-03T20:36:23.445Z,12.30
2018-12-03T20:38:58.049Z,12.30
2018-12-03T20:41:31.772Z,12.30
2018-12-03T20:44:05.644Z,12.30
2018-12-03T20:46:39.594Z,12.30
2018-12-03T20:49:13.311Z,12.20
2018-12-03T20:51:47.129Z,12.10
2018-12-03T20:54:20.935Z,12.10
2018-12-03T20:56:55.422Z,12.00
2018-12-03T20:59:29.947Z,11.90
2018-12-03T21:02:04.586Z,11.80
2018-12-03T21:04:38.286Z,11.70
2018-12-03T21:07:12.749Z,11.60
2018-12-03T21:09:46.633Z,11.60
2018-12-03T21:12:20.595Z,11.60
2018-12-03T21:14:55.207Z,11.50
2018-12-03T21:17:28.883Z,11.50
2018-12-03T21:20:02.684Z,11.50
2018-12-03T21:22:36.415Z,11.40
2018-12-03T21:25:10.051Z,11.40
2018-12-03T21:27:44.667Z,11.50
2018-12-03T21:30:18.489Z,11.50
2018-12-03T21:32:52.276Z,11.50
2018-12-03T21:35:27.004Z,11.50
2018-12-03T21:38:00.722Z,11.50
2018-12-03T21:40:34.585Z,11.60
2018-12-03T21:43:09.016Z,11.70
2018-12-03T21:45:42.728Z,11.60
2018-12-03T21:48:16.363Z,11.70
2018-12-03T21:50:50.933Z,11.60
2018-12-03T21:53:24.734Z,11.60
2018-12-03T21:55:59.193Z,11.60
2018-12-03T21:58:33.005Z,11.60
2018-12-03T22:01:06.896Z,11.60
2018-12-03T22:03:40.600Z,11.60
2018-12-03T22:06:14.351Z,11.60
2018-12-03T22:08:48.135Z,11.60
2018-12-03T22:11:21.830Z,11.60
2018-12-03T22:13:55.508Z,11.60
2018-12-03T22:16:29.315Z,11.60
2018-12-03T22:19:03.245Z,11.60
2018-12-03T22:21:36.942Z,11.60
2018-12-03T22:24:10.786Z,11.60
2018-12-03T22:26:44.586Z,11.60
2018-12-03T22:29:18.352Z,11.60
2018-12-03T22:31:52.146Z,11.60
2018-12-03T22:34:25.841Z,11.60
2018-12-03T22:36:59.636Z,11.60
2018-12-03T22:39:33.311Z,11.50
2018-12-03T22:42:07.044Z,11.40
2018-12-03T22:44:40.821Z,11.40
2018-12-03T22:47:14.423Z,11.40
2018-12-03T22:49:48.889Z,11.40
2018-12-03T22:52:22.580Z,11.40
2018-12-03T22:54:56.453Z,11.30
2018-12-03T22:57:30.900Z,11.30
2018-12-03T23:00:04.710Z,11.20
2018-12-03T23:02:38.374Z,11.10
2018-12-03T23:05:14.172Z,11.10
2018-12-03T23:07:47.926Z,11.10
2018-12-03T23:10:21.748Z,11.20
2018-12-03T23:12:55.435Z,11.20
2018-12-03T23:15:29.156Z,11.20
2018-12-03T23:18:02.824Z,11.20
2018-12-03T23:20:36.604Z,11.20
2018-12-03T23:23:10.478Z,11.20
2018-12-03T23:25:44.305Z,11.20
2018-12-03T23:28:18.912Z,11.20
2018-12-03T23:30:52.718Z,11.20
2018-12-03T23:33:26.496Z,11.20
2018-12-03T23:36:00.371Z,11.20
2018-12-03T23:38:34.959Z,11.20
2018-12-03T23:41:08.844Z,11.20
2018-12-03T23:43:42.574Z,11.20
2018-12-03T23:46:16.274Z,11.20
2018-12-03T23:48:49.964Z,11.10
2018-12-03T23:51:23.760Z,11.10
2018-12-03T23:53:57.345Z,11.10
2018-12-03T23:56:30.925Z,11.10
2018-12-03T23:59:04.694Z,11.10
